TimeMDT,TemperatureF,Dew PointF,Humidity,Sea Level PressureIn,VisibilityMPH,Wind Direction,Wind SpeedMPH,Gust SpeedMPH,PrecipitationIn,Events,Conditions,WindDirDegrees,DateUTC
12:53 AM,64.0,37.0,37,29.97,10.0,ESE,4.6,-,N/A,,Partly Cloudy,110,2013-06-17 06:53:00
1:53 AM,62.1,36.0,38,29.98,10.0,NNE,8.1,-,N/A,,Clear,20,2013-06-17 07:53:00
2:53 AM,60.1,36.0,41,29.98,10.0,SE,4.6,-,N/A,,Clear,130,2013-06-17 08:53:00
3:53 AM,59.0,39.0,48,29.99,10.0,SSE,8.1,-,N/A,,Clear,150,2013-06-17 09:53:00
4:53 AM,57.9,39.9,51,29.99,10.0,SE,5.8,-,N/A,,Clear,140,2013-06-17 10:53:00
5:53 AM,55.0,39.9,57,30.01,10.0,NNE,6.9,-,N/A,,Clear,30,2013-06-17 11:53:00
6:53 AM,57.9,41.0,53,30.01,10.0,NE,9.2,-,N/A,,Clear,50,2013-06-17 12:53:00
7:53 AM,62.1,42.1,48,30.02,10.0,ENE,10.4,-,N/A,,Clear,70,2013-06-17 13:53:00
8:53 AM,64.9,42.1,43,30.01,10.0,ENE,9.2,-,N/A,,Clear,60,2013-06-17 14:53:00
9:53 AM,69.1,43.0,39,30.00,10.0,ENE,9.2,-,N/A,,Clear,70,2013-06-17 15:53:00
10:53 AM,72.0,39.9,31,29.99,10.0,ENE,5.8,-,N/A,,Clear,60,2013-06-17 16:53:00
11:53 AM,73.0,39.0,29,29.98,10.0,East,4.6,-,N/A,,Clear,100,2013-06-17 17:53:00
12:53 PM,75.0,37.9,26,29.96,10.0,Variable,4.6,-,N/A,,Clear,0,2013-06-17 18:53:00
1:53 PM,80.1,37.0,21,29.93,10.0,Variable,3.5,-,N/A,,Clear,0,2013-06-17 19:53:00
2:53 PM,84.0,32.0,15,29.90,10.0,East,8.1,-,N/A,,Clear,100,2013-06-17 20:53:00
3:53 PM,82.9,28.9,14,29.88,10.0,Variable,3.5,17.3,N/A,,Clear,0,2013-06-17 21:53:00
4:53 PM,82.9,28.0,14,29.86,10.0,Variable,3.5,-,N/A,,Clear,0,2013-06-17 22:53:00
5:53 PM,82.0,30.9,16,29.86,10.0,NE,20.7,28.8,N/A,,Clear,40,2013-06-17 23:53:00
6:53 PM,81.0,32.0,17,29.86,10.0,NE,17.3,-,N/A,,Clear,50,2013-06-18 00:53:00
7:53 PM,81.0,30.0,16,29.84,10.0,NE,15.0,-,N/A,,Partly Cloudy,50,2013-06-18 01:53:00
8:53 PM,78.1,28.9,17,29.87,10.0,ENE,9.2,-,0.00,,Mostly Cloudy,60,2013-06-18 02:53:00
9:53 PM,73.9,28.9,19,29.87,10.0,East,8.1,-,N/A,,Clear,100,2013-06-18 03:53:00
10:53 PM,69.1,44.1,40,29.90,10.0,East,11.5,-,N/A,,Clear,90,2013-06-18 04:53:00
11:53 PM,66.9,42.1,40,29.91,10.0,East,8.1,-,N/A,,Clear,80,2013-06-18 05:53:00